Time;durP1;ratioP1;P1;durP2;ratioP2;P2;SDS_P1;SDS_P2;PMS_P1;PMS_P2;Temp;Humidity;BMP_temperature;BMP_pressure;BME280_temperature;BME280_humidity;BME280_pressure;Samples;Min_cycle;Max_cycle;Signal;HPM_P1;HPM_P2
2022/10/11 00:02:17;;;;;;;35.30;11.48;;;17.50;99.90;;;;;;5056764;28;20109;-78
2022/10/11 00:04:42;;;;;;;30.90;10.73;;;17.40;99.90;;;;;;5054261;28;20037;-78
2022/10/11 00:07:08;;;;;;;31.42;10.93;;;17.40;99.90;;;;;;5053854;28;20096;-78
2022/10/11 00:09:34;;;;;;;29.48;11.45;;;17.40;99.90;;;;;;5059670;28;20050;-78
2022/10/11 00:12:00;;;;;;;29.65;11.45;;;17.40;99.90;;;;;;5058985;28;20021;-78
2022/10/11 00:14:26;;;;;;;29.77;11.02;;;17.40;99.90;;;;;;5063163;28;20043;-78
2022/10/11 00:16:53;;;;;;;38.35;11.80;;;17.30;99.90;;;;;;5057401;28;20028;-78
2022/10/11 00:19:19;;;;;;;35.53;10.80;;;17.30;99.90;;;;;;5060492;28;20036;-78
2022/10/11 00:21:45;;;;;;;31.48;10.73;;;17.30;99.90;;;;;;5062103;28;20016;-78
2022/10/11 00:24:11;;;;;;;29.35;11.60;;;17.30;99.90;;;;;;5058360;28;20507;-78
2022/10/11 00:26:37;;;;;;;35.42;10.10;;;17.30;99.90;;;;;;5063713;28;20012;-78
2022/10/11 00:29:03;;;;;;;34.05;10.35;;;17.20;99.90;;;;;;5056949;28;20078;-78
2022/10/11 00:31:29;;;;;;;30.77;10.68;;;17.20;99.90;;;;;;5058514;28;20071;-78
2022/10/11 00:33:54;;;;;;;31.30;11.25;;;17.10;99.90;;;;;;5055834;28;20087;-78
2022/10/11 00:36:21;;;;;;;42.30;11.80;;;17.20;99.90;;;;;;5054891;28;20041;-78
2022/10/11 00:38:47;;;;;;;34.45;10.45;;;17.10;99.90;;;;;;5054800;28;20628;-79
2022/10/11 00:41:14;;;;;;;30.23;10.73;;;17.20;99.90;;;;;;5053417;28;20029;-78
2022/10/11 00:43:40;;;;;;;29.98;10.48;;;17.20;99.90;;;;;;5057155;28;20516;-78
2022/10/11 00:46:24;;;;;;;32.60;11.15;;;17.10;99.90;;;;;;5067360;28;20036;-78
2022/10/11 00:48:56;;;;;;;31.13;10.88;;;17.10;99.90;;;;;;5063166;28;20099;-78
2022/10/11 00:51:33;;;;;;;29.08;10.45;;;17.10;99.90;;;;;;5056047;28;20128;-78
2022/10/11 00:54:00;;;;;;;32.83;10.90;;;17.10;99.90;;;;;;5060388;28;20047;-78
2022/10/11 00:56:31;;;;;;;28.02;9.98;;;17.10;99.90;;;;;;5055382;28;20508;-78
2022/10/11 00:59:00;;;;;;;31.17;10.43;;;17.10;99.90;;;;;;5057153;28;20036;-78
2022/10/11 01:01:26;;;;;;;34.63;10.25;;;17.00;99.90;;;;;;5053990;28;20025;-78
2022/10/11 01:03:51;;;;;;;25.13;9.75;;;17.10;99.90;;;;;;5054616;28;20029;-78
2022/10/11 01:06:17;;;;;;;27.52;10.90;;;17.00;99.90;;;;;;5052836;28;20033;-78
2022/10/11 01:08:44;;;;;;;26.08;10.73;;;17.00;99.90;;;;;;5058113;28;20035;-78
2022/10/11 01:11:13;;;;;;;31.02;10.57;;;17.00;99.90;;;;;;5063321;28;20210;-78
2022/10/11 01:13:42;;;;;;;26.98;10.25;;;17.10;99.90;;;;;;5056136;28;20039;-78
2022/10/11 01:16:18;;;;;;;30.02;10.30;;;17.00;99.90;;;;;;5064649;28;20060;-78
2022/10/11 01:18:53;;;;;;;25.92;11.02;;;17.00;99.90;;;;;;5055771;28;20028;-78
2022/10/11 01:21:38;;;;;;;27.58;10.55;;;17.10;99.90;;;;;;5067573;28;20033;-78
2022/10/11 01:24:24;;;;;;;28.98;10.60;;;17.00;99.90;;;;;;5065496;28;20103;-78
2022/10/11 01:27:08;;;;;;;32.53;10.25;;;17.00;99.90;;;;;;5065079;28;20070;-78
2022/10/11 01:30:01;;;;;;;25.15;10.18;;;17.10;99.90;;;;;;5056333;28;20122;-78
2022/10/11 01:32:53;;;;;;;31.95;10.45;;;17.10;99.90;;;;;;5054633;28;20036;-78
2022/10/11 01:35:30;;;;;;;26.73;9.90;;;17.10;99.90;;;;;;5062266;28;20037;-78
2022/10/11 01:38:05;;;;;;;25.25;10.02;;;17.00;99.90;;;;;;5053084;28;20031;-79
2022/10/11 01:40:36;;;;;;;24.42;10.50;;;16.90;99.90;;;;;;5068673;28;20485;-78
2022/10/11 01:43:03;;;;;;;27.42;10.52;;;17.00;99.90;;;;;;5052118;28;20021;-78
2022/10/11 01:45:29;;;;;;;24.33;10.15;;;17.00;99.90;;;;;;5070582;28;20020;-78
2022/10/11 01:48:13;;;;;;;30.13;10.45;;;17.00;99.90;;;;;;5057443;28;20024;-78
2022/10/11 01:50:47;;;;;;;32.97;10.82;;;17.00;99.90;;;;;;5064415;28;20020;-78
2022/10/11 01:53:28;;;;;;;24.73;9.40;;;17.00;99.90;;;;;;5055367;28;20037;-78
2022/10/11 01:56:04;;;;;;;22.05;10.10;;;17.00;99.90;;;;;;5079510;28;20040;-78
2022/10/11 01:58:37;;;;;;;28.15;10.63;;;17.00;99.90;;;;;;5054338;28;20378;-78
2022/10/11 02:01:21;;;;;;;27.27;10.32;;;17.00;99.90;;;;;;5053590;28;20032;-78
2022/10/11 02:04:10;;;;;;;20.05;9.82;;;17.00;99.90;;;;;;5053029;28;20532;-78
2022/10/11 02:06:47;;;;;;;26.38;10.55;;;16.90;99.90;;;;;;5050991;28;20044;-77
2022/10/11 02:09:25;;;;;;;24.70;10.68;;;16.90;99.90;;;;;;5055969;28;20056;-78
2022/10/11 02:11:55;;;;;;;25.10;10.68;;;16.90;99.90;;;;;;5056698;28;20064;-78
2022/10/11 02:14:29;;;;;;;25.50;10.70;;;16.90;99.90;;;;;;5060891;28;20496;-77
2022/10/11 02:16:57;;;;;;;;;;;16.90;99.90;;;;;;5055595;28;20037;-78
2022/10/11 02:19:28;;;;;;;34.53;10.82;;;16.80;99.90;;;;;;5058050;28;19988;-78
2022/10/11 02:22:00;;;;;;;25.38;11.73;;;16.80;99.90;;;;;;5060866;28;20054;-78
2022/10/11 02:24:32;;;;;;;28.13;11.68;;;16.80;99.90;;;;;;5066747;28;20020;-78
2022/10/11 02:27:00;;;;;;;26.25;10.93;;;16.70;99.90;;;;;;5058760;28;20054;-77
2022/10/11 02:29:28;;;;;;;29.85;11.02;;;16.80;99.90;;;;;;5054501;28;20653;-78
2022/10/11 02:31:57;;;;;;;26.05;11.30;;;16.80;99.90;;;;;;5056923;28;20553;-78
2022/10/11 02:34:25;;;;;;;29.75;11.15;;;16.70;99.90;;;;;;5053139;28;20029;-78
2022/10/11 02:37:01;;;;;;;30.20;12.20;;;16.80;99.90;;;;;;5054061;28;20024;-78
2022/10/11 02:40:11;;;;;;;24.75;11.95;;;16.60;99.90;;;;;;5051496;28;20037;-77
2022/10/11 02:42:43;;;;;;;29.63;11.18;;;16.70;99.90;;;;;;5051857;28;20097;-78
2022/10/11 02:45:24;;;;;;;27.77;12.00;;;16.70;99.90;;;;;;5066355;28;20032;-77
2022/10/11 02:47:50;;;;;;;38.65;11.50;;;16.80;99.90;;;;;;5057134;28;20021;-77
2022/10/11 02:50:16;;;;;;;22.88;11.13;;;16.70;99.90;;;;;;5058228;28;20055;-78
2022/10/11 02:52:42;;;;;;;30.00;11.57;;;16.70;99.90;;;;;;5056126;28;20063;-78
2022/10/11 02:55:08;;;;;;;26.05;10.55;;;16.70;99.90;;;;;;5054783;28;20061;-78
2022/10/11 02:57:34;;;;;;;24.70;11.20;;;16.70;99.90;;;;;;5055044;28;20013;-78
2022/10/11 03:00:00;;;;;;;28.45;11.43;;;16.70;99.90;;;;;;5052150;28;20059;-78
2022/10/11 03:02:26;;;;;;;20.77;11.05;;;16.80;99.90;;;;;;5053228;28;20021;-78
2022/10/11 03:04:52;;;;;;;20.23;11.05;;;16.80;99.90;;;;;;5050933;28;20489;-78
2022/10/11 03:07:17;;;;;;;23.13;10.38;;;16.80;99.90;;;;;;5050605;28;20087;-78
2022/10/11 03:09:44;;;;;;;24.75;11.05;;;16.70;99.90;;;;;;5056324;28;20029;-78
2022/10/11 03:12:09;;;;;;;22.90;10.27;;;16.70;99.90;;;;;;5057004;28;20017;-78
2022/10/11 03:14:35;;;;;;;21.73;12.05;;;16.70;99.90;;;;;;5059209;28;20392;-78
2022/10/11 03:17:01;;;;;;;26.13;11.70;;;16.70;99.90;;;;;;5058492;28;20502;-77
2022/10/11 03:19:26;;;;;;;29.27;12.05;;;16.70;99.90;;;;;;5061477;28;20106;-78
2022/10/11 03:21:52;;;;;;;27.48;11.10;;;16.80;99.90;;;;;;5063846;28;20350;-77
2022/10/11 03:24:17;;;;;;;26.25;11.68;;;16.70;99.90;;;;;;5065816;28;20557;-77
2022/10/11 03:26:43;;;;;;;28.13;10.88;;;16.80;99.90;;;;;;5063319;28;20017;-78
2022/10/11 03:29:09;;;;;;;23.70;11.23;;;16.80;99.90;;;;;;5057664;28;20040;-78
2022/10/11 03:31:34;;;;;;;23.08;11.35;;;16.80;99.90;;;;;;5060384;28;20017;-78
2022/10/11 03:34:00;;;;;;;26.38;11.05;;;16.60;99.90;;;;;;5056210;28;20049;-77
2022/10/11 03:36:26;;;;;;;24.05;11.75;;;16.70;99.90;;;;;;5056821;28;20676;-78
2022/10/11 03:38:51;;;;;;;26.00;10.98;;;16.70;99.90;;;;;;5054018;28;20497;-78
2022/10/11 03:41:17;;;;;;;24.70;10.90;;;16.60;99.90;;;;;;5054136;28;20112;-78
2022/10/11 03:43:43;;;;;;;30.65;10.93;;;16.70;99.90;;;;;;5063667;28;20393;-78
2022/10/11 03:46:09;;;;;;;23.08;11.93;;;16.70;99.90;;;;;;5067537;28;20571;-78
2022/10/11 03:48:34;;;;;;;24.60;11.73;;;16.70;99.90;;;;;;5062036;28;20028;-77
2022/10/11 03:51:00;;;;;;;23.08;11.68;;;16.60;99.90;;;;;;5060096;28;20075;-78
2022/10/11 03:53:25;;;;;;;27.45;11.00;;;16.60;99.90;;;;;;5058652;28;20032;-77
2022/10/11 03:55:53;;;;;;;24.85;12.38;;;16.60;99.90;;;;;;5059283;28;20635;-78
2022/10/11 03:58:19;;;;;;;26.20;11.27;;;16.60;99.90;;;;;;5055973;28;20485;-77
2022/10/11 04:00:45;;;;;;;23.42;11.73;;;16.60;99.90;;;;;;5057331;28;20032;-78
2022/10/11 04:03:11;;;;;;;31.40;12.05;;;16.60;99.90;;;;;;5054475;28;20024;-77
2022/10/11 04:05:37;;;;;;;22.73;11.60;;;16.60;99.90;;;;;;5054397;28;20028;-78
2022/10/11 04:08:05;;;;;;;25.33;11.80;;;16.60;99.90;;;;;;5053108;28;20029;-78
2022/10/11 04:10:31;;;;;;;19.75;11.02;;;16.60;99.90;;;;;;5061118;28;20080;-78
2022/10/11 04:12:57;;;;;;;20.77;11.40;;;16.60;99.90;;;;;;5062477;28;20113;-78
2022/10/11 04:15:22;;;;;;;23.70;11.27;;;16.60;99.90;;;;;;5057833;28;20528;-78
2022/10/11 04:17:48;;;;;;;21.13;11.52;;;16.60;99.90;;;;;;5061269;28;20515;-78
2022/10/11 04:20:14;;;;;;;26.50;12.98;;;16.60;99.90;;;;;;5056389;28;20029;-78
2022/10/11 04:22:40;;;;;;;21.42;13.02;;;16.60;99.90;;;;;;5069261;28;20024;-78
2022/10/11 04:25:07;;;;;;;23.15;12.88;;;16.60;99.90;;;;;;5062899;28;20016;-77
2022/10/11 04:27:33;;;;;;;23.25;12.20;;;16.60;99.90;;;;;;5059992;28;20037;-78
2022/10/11 04:29:59;;;;;;;22.58;12.57;;;16.60;99.90;;;;;;5060000;28;20447;-78
2022/10/11 04:32:25;;;;;;;22.45;11.73;;;16.60;99.90;;;;;;5055774;28;20071;-78
2022/10/11 04:34:50;;;;;;;25.98;13.07;;;16.60;99.90;;;;;;5057053;28;20029;-78
2022/10/11 04:37:17;;;;;;;24.65;12.45;;;16.60;99.90;;;;;;5065734;28;20029;-78
2022/10/11 04:39:43;;;;;;;23.98;13.77;;;16.60;99.90;;;;;;5053681;28;20028;-78
2022/10/11 04:42:08;;;;;;;25.80;12.65;;;16.50;99.90;;;;;;5052939;28;20075;-78
2022/10/11 04:44:34;;;;;;;26.30;13.27;;;16.50;99.90;;;;;;5058661;28;20084;-78
2022/10/11 04:47:00;;;;;;;29.30;12.82;;;16.60;99.90;;;;;;5062484;28;20027;-78
2022/10/11 04:49:25;;;;;;;24.33;13.55;;;16.50;99.90;;;;;;5058638;28;20509;-78
2022/10/11 04:51:51;;;;;;;26.85;12.90;;;16.60;99.90;;;;;;5058812;28;20025;-78
2022/10/11 04:54:17;;;;;;;23.08;13.27;;;16.60;99.90;;;;;;5057923;28;20025;-78
2022/10/11 04:56:43;;;;;;;33.50;13.45;;;16.60;99.90;;;;;;5055306;28;20123;-78
2022/10/11 04:59:08;;;;;;;22.98;13.00;;;16.60;99.90;;;;;;5056842;28;20527;-78
2022/10/11 05:01:34;;;;;;;32.00;14.82;;;16.50;99.90;;;;;;5054113;28;20116;-77
2022/10/11 05:04:00;;;;;;;23.85;14.27;;;16.60;99.90;;;;;;5053999;28;20021;-78
2022/10/11 05:06:25;;;;;;;21.90;13.80;;;16.50;99.90;;;;;;5052352;28;20024;-78
2022/10/11 05:08:51;;;;;;;29.33;13.95;;;16.60;99.90;;;;;;5067274;28;20115;-78
2022/10/11 05:11:17;;;;;;;25.98;13.57;;;16.50;99.90;;;;;;5061770;28;20497;-78
2022/10/11 05:13:44;;;;;;;26.95;15.65;;;16.60;99.90;;;;;;5057124;28;20029;-78
2022/10/11 05:16:11;;;;;;;25.83;14.35;;;16.60;99.90;;;;;;5064980;28;20522;-78
2022/10/11 05:18:38;;;;;;;29.80;15.43;;;16.50;99.90;;;;;;5057584;28;20028;-78
2022/10/11 05:21:24;;;;;;;28.80;15.18;;;16.60;99.90;;;;;;5058197;28;20023;-78
2022/10/11 05:23:52;;;;;;;25.25;14.68;;;16.60;99.90;;;;;;5067004;28;20056;-77
2022/10/11 05:26:19;;;;;;;28.30;16.17;;;16.50;99.90;;;;;;5058002;28;20552;-78
2022/10/11 05:28:45;;;;;;;31.48;15.10;;;16.60;99.90;;;;;;5057673;28;20013;-80
2022/10/11 05:31:11;;;;;;;33.35;15.10;;;16.50;99.90;;;;;;5054681;28;20106;-78
2022/10/11 05:33:37;;;;;;;29.98;15.07;;;16.50;99.90;;;;;;5064930;28;20444;-78
2022/10/11 05:36:03;;;;;;;26.52;14.77;;;16.60;99.90;;;;;;5053251;28;20053;-78
2022/10/11 05:38:29;;;;;;;34.00;16.08;;;16.50;99.90;;;;;;5054056;28;20106;-78
2022/10/11 05:40:58;;;;;;;25.17;15.13;;;16.50;99.90;;;;;;5054192;28;20033;-78
2022/10/11 05:43:24;;;;;;;28.05;16.00;;;16.50;99.90;;;;;;5057747;28;20020;-78
2022/10/11 05:45:50;;;;;;;28.70;15.73;;;16.50;99.90;;;;;;5060868;28;20500;-78
2022/10/11 05:48:15;;;;;;;28.50;17.48;;;16.50;99.90;;;;;;5056969;28;20028;-78
2022/10/11 05:50:41;;;;;;;38.55;17.88;;;16.50;99.90;;;;;;5060708;28;20108;-78
2022/10/11 05:53:07;;;;;;;34.97;18.27;;;16.50;99.90;;;;;;5066343;28;20029;-77
2022/10/11 05:55:37;;;;;;;30.52;18.55;;;16.50;99.90;;;;;;5066790;28;20036;-78
2022/10/11 05:58:03;;;;;;;28.48;18.88;;;16.50;99.90;;;;;;5060061;28;20084;-79
2022/10/11 06:00:29;;;;;;;34.45;18.73;;;16.50;99.90;;;;;;5066099;28;20037;-79
2022/10/11 06:02:54;;;;;;;32.75;18.65;;;16.50;99.90;;;;;;5063103;28;20032;-79
2022/10/11 06:05:20;;;;;;;35.60;20.00;;;16.50;99.90;;;;;;5062106;28;20228;-79
2022/10/11 06:07:46;;;;;;;33.33;20.60;;;16.50;99.90;;;;;;5068151;28;20059;-79
2022/10/11 06:10:12;;;;;;;33.13;21.90;;;16.50;99.90;;;;;;5068292;28;20045;-79
2022/10/11 06:12:37;;;;;;;38.25;24.65;;;16.50;99.90;;;;;;5072556;28;20021;-79
2022/10/11 06:15:05;;;;;;;38.63;25.55;;;16.40;99.90;;;;;;5066474;28;20036;-79
2022/10/11 06:17:31;;;;;;;39.55;25.02;;;16.30;99.90;;;;;;5069396;28;20024;-79
2022/10/11 06:19:56;;;;;;;38.95;26.27;;;16.30;99.90;;;;;;5065346;28;20074;-79
2022/10/11 06:22:22;;;;;;;42.38;26.77;;;16.20;99.90;;;;;;5073932;28;20107;-79
2022/10/11 06:24:47;;;;;;;39.88;26.27;;;16.30;99.90;;;;;;5061083;28;20020;-79
2022/10/11 06:27:13;;;;;;;40.67;27.33;;;16.30;99.90;;;;;;5056118;28;20032;-79
2022/10/11 06:29:39;;;;;;;40.53;26.70;;;16.30;99.90;;;;;;5055301;28;20025;-79
2022/10/11 06:32:04;;;;;;;44.92;28.60;;;16.30;99.90;;;;;;5057663;28;20493;-80
2022/10/11 06:34:30;;;;;;;42.97;28.85;;;16.30;99.90;;;;;;5054693;28;20347;-79
2022/10/11 06:36:56;;;;;;;39.65;28.55;;;16.30;99.90;;;;;;5053636;28;20044;-79
2022/10/11 06:39:21;;;;;;;41.60;28.42;;;16.30;99.90;;;;;;5051359;28;20059;-79
2022/10/11 06:41:47;;;;;;;42.15;29.20;;;16.20;99.90;;;;;;5050836;28;20083;-79
2022/10/11 06:44:13;;;;;;;45.75;29.67;;;16.20;99.90;;;;;;5056266;28;20424;-79
2022/10/11 06:46:39;;;;;;;42.60;29.13;;;16.20;99.90;;;;;;5057177;28;20021;-79
2022/10/11 06:49:06;;;;;;;45.67;29.42;;;16.20;99.90;;;;;;5058671;28;20037;-79
2022/10/11 06:51:34;;;;;;;46.42;29.88;;;16.20;99.90;;;;;;5054579;28;20013;-79
2022/10/11 06:54:00;;;;;;;45.05;30.58;;;16.30;99.90;;;;;;5056368;28;20025;-79
2022/10/11 06:56:27;;;;;;;48.13;28.80;;;16.30;99.90;;;;;;5053012;28;20063;-79
2022/10/11 06:58:54;;;;;;;42.35;30.05;;;16.30;99.90;;;;;;5054509;28;20028;-79
2022/10/11 07:01:22;;;;;;;42.95;30.70;;;16.30;99.90;;;;;;5051498;28;20100;-79
2022/10/11 07:03:50;;;;;;;44.95;30.92;;;16.30;99.90;;;;;;5051665;28;20032;-79
2022/10/11 07:06:21;;;;;;;41.85;30.42;;;16.30;99.90;;;;;;5050179;28;20397;-79
2022/10/11 07:08:47;;;;;;;52.83;30.85;;;16.30;99.90;;;;;;5057959;28;20036;-79
2022/10/11 07:11:21;;;;;;;46.85;30.13;;;16.30;99.90;;;;;;5060106;28;20025;-79
2022/10/11 07:13:51;;;;;;;50.90;30.15;;;16.30;99.90;;;;;;5055412;28;20025;-79
2022/10/11 07:16:18;;;;;;;46.17;30.70;;;16.30;99.90;;;;;;5057557;28;20055;-79
2022/10/11 07:18:44;;;;;;;43.17;27.80;;;16.20;99.90;;;;;;5053661;28;20035;-79
2022/10/11 07:21:12;;;;;;;43.45;27.25;;;16.30;99.90;;;;;;5057163;28;20480;-79
2022/10/11 07:23:38;;;;;;;38.75;26.40;;;16.40;99.90;;;;;;5066859;28;20137;-79
2022/10/11 07:26:05;;;;;;;37.35;24.38;;;16.30;99.90;;;;;;5054542;28;20032;-80
2022/10/11 07:28:33;;;;;;;38.30;24.52;;;16.40;99.90;;;;;;5063107;28;20099;-80
2022/10/11 07:31:06;;;;;;;34.58;23.00;;;16.40;99.90;;;;;;5053053;28;20087;-80
2022/10/11 07:33:32;;;;;;;40.10;24.52;;;16.40;99.90;;;;;;5054614;28;20052;-79
2022/10/11 07:35:59;;;;;;;38.42;23.30;;;16.40;99.90;;;;;;5051424;28;20060;-80
2022/10/11 07:38:24;;;;;;;39.13;22.95;;;16.40;99.90;;;;;;5052410;28;20035;-80
2022/10/11 07:40:50;;;;;;;41.70;24.27;;;16.50;99.90;;;;;;5050040;28;20033;-80
2022/10/11 07:43:16;;;;;;;35.05;23.60;;;16.50;99.90;;;;;;5050461;28;20021;-80
2022/10/11 07:45:44;;;;;;;33.10;22.65;;;16.50;99.90;;;;;;5060267;28;20131;-80
2022/10/11 07:48:10;;;;;;;36.17;21.92;;;16.60;99.90;;;;;;5054858;28;20024;-79
2022/10/11 07:50:36;;;;;;;29.88;20.95;;;16.60;99.90;;;;;;5058699;28;20025;-80
2022/10/11 07:53:02;;;;;;;34.30;22.75;;;16.70;99.90;;;;;;5053995;28;20412;-79
2022/10/11 07:55:30;;;;;;;35.92;22.60;;;16.80;99.90;;;;;;5055770;28;20501;-79
2022/10/11 07:57:56;;;;;;;36.03;21.75;;;16.80;99.90;;;;;;5050703;28;20090;-79
2022/10/11 08:00:22;;;;;;;38.72;23.42;;;16.80;99.90;;;;;;5052665;28;20055;-80
2022/10/11 08:02:48;;;;;;;32.97;22.90;;;16.90;99.90;;;;;;5054110;28;20025;-80
2022/10/11 08:05:13;;;;;;;30.90;22.55;;;16.90;99.90;;;;;;5053606;28;20214;-80
2022/10/11 08:07:39;;;;;;;32.08;22.25;;;17.10;99.90;;;;;;5065845;28;20020;-80
2022/10/11 08:10:06;;;;;;;33.22;22.38;;;17.10;99.90;;;;;;5059262;28;20061;-80
2022/10/11 08:12:32;;;;;;;37.60;23.30;;;17.20;99.90;;;;;;5062932;28;20082;-80
2022/10/11 08:14:58;;;;;;;37.15;23.42;;;17.20;99.90;;;;;;5058236;28;20490;-80
2022/10/11 08:17:23;;;;;;;34.15;24.10;;;17.30;99.90;;;;;;5059309;28;20033;-80
2022/10/11 08:19:49;;;;;;;34.08;22.88;;;17.40;99.90;;;;;;5057445;28;20032;-80
2022/10/11 08:22:15;;;;;;;36.60;23.92;;;17.50;99.90;;;;;;5065547;28;20025;-80
2022/10/11 08:24:41;;;;;;;35.63;23.80;;;17.70;99.90;;;;;;5063140;28;20397;-80
2022/10/11 08:27:07;;;;;;;37.90;24.08;;;17.80;99.90;;;;;;5059002;28;20076;-80
2022/10/11 08:29:32;;;;;;;36.15;22.70;;;17.90;99.90;;;;;;5056634;28;20037;-80
2022/10/11 08:31:58;;;;;;;34.53;23.20;;;17.90;99.90;;;;;;5057946;28;20025;-80
2022/10/11 08:34:23;;;;;;;39.75;24.40;;;18.00;99.90;;;;;;5054878;28;20021;-80
2022/10/11 08:36:49;;;;;;;37.15;24.60;;;18.00;99.90;;;;;;5055369;28;20068;-80
2022/10/11 08:39:15;;;;;;;42.83;25.63;;;18.00;99.90;;;;;;5053289;28;20036;-80
2022/10/11 08:41:53;;;;;;;42.25;25.25;;;17.90;99.90;;;;;;5055201;28;20107;-80
2022/10/11 08:44:34;;;;;;;36.58;23.17;;;17.90;99.90;;;;;;5069781;28;20370;-80
2022/10/11 08:47:29;;;;;;;38.70;24.58;;;18.30;99.90;;;;;;5062631;28;20028;-80
2022/10/11 08:49:55;;;;;;;33.08;22.88;;;18.40;99.90;;;;;;5054805;28;20064;-80
2022/10/11 08:52:26;;;;;;;38.80;25.15;;;18.50;99.90;;;;;;5060083;28;20012;-80
2022/10/11 08:54:58;;;;;;;34.15;24.65;;;18.60;99.90;;;;;;5055638;28;20029;-80
2022/10/11 08:57:26;;;;;;;46.30;24.20;;;18.40;99.90;;;;;;5057420;28;20032;-80
2022/10/11 09:00:00;;;;;;;41.53;25.63;;;18.40;99.90;;;;;;5053942;28;20017;-80
2022/10/11 09:02:32;;;;;;;39.25;24.10;;;18.50;99.90;;;;;;5063449;28;20500;-80
2022/10/11 09:04:59;;;;;;;33.88;24.25;;;18.50;99.90;;;;;;5054170;28;20043;-80
2022/10/11 09:07:30;;;;;;;36.97;24.42;;;18.60;99.90;;;;;;5055959;28;20021;-80
2022/10/11 09:10:02;;;;;;;39.20;23.67;;;18.80;99.90;;;;;;5059324;28;20416;-80
2022/10/11 09:13:02;;;;;;;37.40;24.45;;;18.80;99.90;;;;;;5065121;28;20024;-80
2022/10/11 09:15:34;;;;;;;40.67;24.33;;;18.80;99.90;;;;;;5056752;28;20029;-80
2022/10/11 09:18:44;;;;;;;38.10;24.17;;;18.80;99.90;;;;;;5058062;28;20031;-80
2022/10/11 09:21:47;;;;;;;36.90;23.40;;;18.70;99.90;;;;;;5044017;28;20031;-80
2022/10/11 09:24:27;;;;;;;33.88;22.55;;;18.70;99.90;;;;;;5063886;28;20059;-80
2022/10/11 09:27:21;;;;;;;33.22;22.45;;;18.80;99.90;;;;;;5064554;28;20025;-80
2022/10/11 09:30:02;;;;;;;33.27;22.23;;;18.90;99.90;;;;;;5053041;28;20040;-80
2022/10/11 09:32:34;;;;;;;38.33;23.40;;;19.10;99.90;;;;;;5053903;28;20167;-80
2022/10/11 09:35:18;;;;;;;32.95;21.10;;;19.00;99.90;;;;;;5055095;28;20091;-80
2022/10/11 09:37:52;;;;;;;33.88;20.73;;;18.80;99.90;;;;;;5052793;28;20104;-80
2022/10/11 09:40:26;;;;;;;;;;;18.90;99.90;;;;;;5052816;28;20489;-80
2022/10/11 09:42:51;;;;;;;32.83;20.55;;;18.80;99.90;;;;;;5063177;28;20261;-80
2022/10/11 09:45:20;;;;;;;29.52;20.30;;;18.90;99.90;;;;;;5063240;28;20017;-81
2022/10/11 09:47:49;;;;;;;30.83;20.80;;;19.00;99.90;;;;;;5057987;28;20029;-80
2022/10/11 09:50:19;;;;;;;31.42;20.05;;;18.90;99.90;;;;;;5058537;28;20040;-80
2022/10/11 09:52:53;;;;;;;34.58;20.23;;;19.00;99.90;;;;;;5055711;28;20082;-80
2022/10/11 09:55:39;;;;;;;30.33;19.77;;;19.00;99.90;;;;;;5056742;28;20472;-80
2022/10/11 09:58:25;;;;;;;35.42;20.10;;;19.10;99.90;;;;;;5053234;28;20236;-80
2022/10/11 10:01:06;;;;;;;28.45;18.70;;;19.00;99.90;;;;;;5064314;28;20023;-80
2022/10/11 10:03:35;;;;;;;33.35;20.10;;;19.10;99.90;;;;;;5057564;28;20513;-80
2022/10/11 10:06:24;;;;;;;28.98;20.30;;;19.20;99.90;;;;;;5050892;28;20108;-81
2022/10/11 10:08:49;;;;;;;34.05;19.27;;;19.20;99.90;;;;;;5058958;28;20029;-80
2022/10/11 10:11:17;;;;;;;32.35;19.40;;;19.20;99.90;;;;;;5060082;28;20384;-80
2022/10/11 10:13:48;;;;;;;27.65;17.92;;;19.20;99.90;;;;;;5058577;28;20029;-80
2022/10/11 10:16:36;;;;;;;37.72;20.25;;;19.30;99.90;;;;;;5069599;28;20037;-80
2022/10/11 10:19:20;;;;;;;38.20;19.10;;;19.30;99.90;;;;;;5074480;28;20021;-80
2022/10/11 10:21:49;;;;;;;32.92;20.13;;;19.50;99.90;;;;;;5062691;28;20034;-81
2022/10/11 10:24:37;;;;;;;28.40;19.50;;;19.30;99.90;;;;;;5073992;28;20090;-80
2022/10/11 10:27:19;;;;;;;31.83;19.25;;;19.40;99.90;;;;;;5072928;28;20017;-80
2022/10/11 10:30:07;;;;;;;28.65;18.95;;;19.50;99.90;;;;;;5067469;28;20029;-80
2022/10/11 10:32:49;;;;;;;33.05;19.73;;;19.50;99.90;;;;;;5062617;28;20069;-80
2022/10/11 10:35:25;;;;;;;29.88;19.50;;;19.60;99.90;;;;;;5062132;28;20036;-80
2022/10/11 10:38:00;;;;;;;31.65;19.48;;;19.60;99.90;;;;;;5060952;28;20307;-80
2022/10/11 10:40:44;;;;;;;32.78;20.17;;;19.70;99.90;;;;;;5072713;28;20051;-80
2022/10/11 10:43:16;;;;;;;35.88;19.58;;;19.80;99.90;;;;;;5062610;28;20039;-80
2022/10/11 10:45:50;;;;;;;32.28;19.38;;;19.90;99.90;;;;;;5069086;28;20043;-80
2022/10/11 10:48:50;;;;;;;32.38;19.23;;;19.90;99.90;;;;;;5056274;28;20023;-80
2022/10/11 10:51:49;;;;;;;27.70;18.63;;;20.00;99.90;;;;;;5057934;28;20033;-80
2022/10/11 10:54:34;;;;;;;33.83;20.92;;;20.30;99.90;;;;;;5063929;28;20140;-81
2022/10/11 10:57:12;;;;;;;34.10;19.17;;;20.40;99.90;;;;;;5063504;28;20037;-81
2022/10/11 11:00:02;;;;;;;28.95;18.38;;;20.40;99.90;;;;;;5056594;28;20431;-81
2022/10/11 11:02:32;;;;;;;36.38;19.25;;;20.50;99.90;;;;;;5052477;28;20033;-81
2022/10/11 11:05:12;;;;;;;29.65;16.98;;;20.40;99.90;;;;;;5063084;28;20029;-81
2022/10/11 11:08:16;;;;;;;31.60;18.92;;;20.50;99.90;;;;;;5049296;28;20087;-81
2022/10/11 11:10:44;;;;;;;29.42;18.58;;;20.60;99.90;;;;;;5023949;28;20118;-81
2022/10/11 11:13:24;;;;;;;33.65;18.17;;;20.70;99.90;;;;;;5058205;28;20020;-81
2022/10/11 11:16:08;;;;;;;29.77;18.75;;;20.80;99.90;;;;;;5053993;28;20513;-81
2022/10/11 11:18:48;;;;;;;28.60;17.52;;;20.80;99.90;;;;;;5053196;28;20078;-81
2022/10/11 11:21:32;;;;;;;34.33;17.73;;;20.80;99.90;;;;;;5054731;28;20033;-81
2022/10/11 11:24:26;;;;;;;30.38;17.02;;;20.90;99.90;;;;;;5063966;28;20025;-83
2022/10/11 11:27:16;;;;;;;25.88;16.15;;;21.10;99.90;;;;;;5062918;28;20104;-83
2022/10/11 11:29:51;;;;;;;23.73;14.30;;;21.20;99.90;;;;;;5054713;28;20071;-84
2022/10/11 11:32:32;;;;;;;26.05;14.98;;;21.30;99.90;;;;;;5052422;28;20037;-83
2022/10/11 11:35:04;;;;;;;23.58;14.77;;;21.50;99.90;;;;;;5053576;28;20154;-83
2022/10/11 11:37:43;;;;;;;24.23;14.23;;;21.60;99.90;;;;;;5054360;28;20033;-81
2022/10/11 11:40:17;;;;;;;27.02;15.95;;;21.70;99.90;;;;;;5054742;28;20017;-81
2022/10/11 11:42:49;;;;;;;22.90;14.98;;;21.70;99.90;;;;;;5063838;28;20025;-80
2022/10/11 11:45:36;;;;;;;31.95;14.32;;;21.80;99.90;;;;;;5065125;28;20504;-81
2022/10/11 11:48:07;;;;;;;23.23;13.35;;;22.00;99.90;;;;;;5058806;28;20306;-81
2022/10/11 11:50:39;;;;;;;25.02;13.60;;;22.10;99.90;;;;;;5062260;28;20063;-81
2022/10/11 11:53:12;;;;;;;24.08;14.10;;;22.20;99.90;;;;;;5057234;28;20100;-81
2022/10/11 11:55:59;;;;;;;23.43;12.40;;;22.30;99.90;;;;;;5059737;28;20025;-81
2022/10/11 11:58:27;;;;;;;20.48;13.25;;;22.50;99.90;;;;;;5055830;28;20271;-81
2022/10/11 12:01:49;;;;;;;25.27;13.05;;;22.60;99.90;;;;;;5069521;28;20512;-82
2022/10/11 12:04:21;;;;;;;21.23;11.85;;;22.90;99.90;;;;;;5022504;28;20397;-81
2022/10/11 12:07:17;;;;;;;24.52;12.00;;;23.20;99.90;;;;;;5052275;28;20033;-81
2022/10/11 12:09:51;;;;;;;25.80;11.73;;;23.10;99.90;;;;;;5064117;28;20074;-81
2022/10/11 12:12:30;;;;;;;20.77;11.70;;;23.10;99.90;;;;;;5060987;28;20033;-81
2022/10/11 12:15:08;;;;;;;23.88;12.27;;;23.20;99.90;;;;;;5058429;28;20075;-81
2022/10/11 12:17:52;;;;;;;23.90;11.35;;;23.20;99.90;;;;;;5060717;28;20055;-81
2022/10/11 12:20:30;;;;;;;18.83;10.27;;;23.30;99.90;;;;;;5081633;28;20021;-82
2022/10/11 12:23:04;;;;;;;21.33;10.45;;;23.70;99.90;;;;;;5070802;28;20745;-81
2022/10/11 12:25:37;;;;;;;21.13;11.40;;;23.80;99.90;;;;;;5059202;28;20099;-81
2022/10/11 12:28:40;;;;;;;27.27;10.60;;;23.90;99.90;;;;;;5058514;28;20215;-82
2022/10/11 12:31:24;;;;;;;21.73;11.10;;;24.10;99.90;;;;;;5057587;28;20033;-81
2022/10/11 12:34:25;;;;;;;23.83;10.32;;;24.20;99.90;;;;;;5061933;28;20111;-81
2022/10/11 12:36:51;;;;;;;22.00;10.55;;;24.50;99.90;;;;;;5053031;28;20060;-81
2022/10/11 12:39:19;;;;;;;19.05;10.20;;;24.70;99.90;;;;;;5053243;28;20021;-81
2022/10/11 12:41:54;;;;;;;21.75;9.27;;;25.00;99.90;;;;;;5060787;28;20459;-81
2022/10/11 12:44:21;;;;;;;16.35;7.88;;;24.90;99.90;;;;;;5067753;28;20100;-81
2022/10/11 12:46:50;;;;;;;17.95;8.70;;;24.70;99.90;;;;;;5059489;28;20036;-81
2022/10/11 12:49:36;;;;;;;19.52;8.38;;;24.80;99.90;;;;;;5058590;28;20047;-81
2022/10/11 12:52:04;;;;;;;18.60;8.93;;;24.60;99.90;;;;;;5062216;28;20504;-81